createdAt,value
2024-05-09T00:00:52.170Z,14.94
2024-05-09T00:03:43.864Z,14.90
2024-05-09T00:06:14.606Z,14.85
2024-05-09T00:08:45.177Z,14.79
2024-05-09T00:11:16.611Z,14.74
2024-05-09T00:13:47.198Z,14.71
2024-05-09T00:16:17.829Z,14.69
2024-05-09T00:18:51.391Z,14.68
2024-05-09T00:21:22.032Z,14.65
2024-05-09T00:23:52.651Z,14.62
2024-05-09T00:26:23.222Z,14.58
2024-05-09T00:28:53.989Z,14.58
2024-05-09T00:31:24.577Z,14.63
2024-05-09T00:33:55.564Z,14.64
2024-05-09T00:36:26.250Z,14.60
2024-05-09T00:38:56.718Z,14.61
2024-05-09T00:41:27.231Z,14.58
2024-05-09T00:43:57.808Z,14.58
2024-05-09T00:46:28.368Z,14.60
2024-05-09T00:48:58.955Z,14.56
2024-05-09T00:51:29.556Z,14.55
2024-05-09T00:54:00.062Z,14.53
2024-05-09T00:56:30.549Z,14.52
2024-05-09T00:59:01.120Z,14.56
2024-05-09T01:01:31.742Z,14.56
2024-05-09T01:04:02.453Z,14.51
2024-05-09T01:06:33.134Z,14.48
2024-05-09T01:09:03.643Z,14.47
2024-05-09T01:11:38.949Z,14.43
2024-05-09T01:14:09.641Z,14.36
2024-05-09T01:16:40.160Z,14.30
2024-05-09T01:19:12.914Z,14.29
2024-05-09T01:21:43.601Z,14.27
2024-05-09T01:24:14.150Z,14.28
2024-05-09T01:26:44.738Z,14.27
2024-05-09T01:29:15.354Z,14.28
2024-05-09T01:31:46.264Z,14.33
2024-05-09T01:34:16.977Z,14.38
2024-05-09T01:36:47.543Z,14.40
2024-05-09T01:39:18.056Z,14.40
2024-05-09T01:41:48.498Z,14.37
2024-05-09T01:44:19.062Z,14.37
2024-05-09T01:46:49.708Z,14.37
2024-05-09T01:49:20.379Z,14.34
2024-05-09T01:51:50.958Z,14.32
2024-05-09T01:54:21.478Z,14.32
2024-05-09T01:56:52.007Z,14.33
2024-05-09T01:59:22.656Z,14.34
2024-05-09T02:01:56.954Z,14.35
2024-05-09T02:04:28.697Z,14.39
2024-05-09T02:06:59.492Z,14.41
2024-05-09T02:09:29.962Z,14.38
2024-05-09T02:12:00.660Z,14.40
2024-05-09T02:14:31.556Z,14.40
2024-05-09T02:17:02.046Z,14.41
2024-05-09T02:19:33.096Z,14.43
2024-05-09T02:22:03.972Z,14.39
2024-05-09T02:24:34.394Z,14.39
2024-05-09T02:27:05.207Z,14.41
2024-05-09T02:29:35.895Z,14.41
2024-05-09T02:32:07.144Z,14.44
2024-05-09T02:34:37.835Z,14.48
2024-05-09T02:37:08.313Z,14.47
2024-05-09T02:39:38.859Z,14.48
2024-05-09T02:42:09.422Z,14.48
2024-05-09T02:44:39.958Z,14.47
2024-05-09T02:47:10.469Z,14.51
2024-05-09T02:49:41.067Z,14.54
2024-05-09T02:52:11.787Z,14.56
2024-05-09T02:54:42.266Z,14.59
2024-05-09T02:57:12.770Z,14.58
2024-05-09T02:59:43.145Z,14.55
2024-05-09T03:02:13.973Z,14.58
2024-05-09T03:04:46.052Z,14.62
2024-05-09T03:07:18.997Z,14.64
2024-05-09T03:09:50.635Z,14.61
2024-05-09T03:12:21.217Z,14.60
2024-05-09T03:14:52.516Z,14.57
2024-05-09T03:17:24.037Z,14.55
2024-05-09T03:19:54.888Z,14.56
2024-05-09T03:22:25.659Z,14.54
2024-05-09T03:24:56.142Z,14.56
2024-05-09T03:27:26.717Z,14.61
2024-05-09T03:29:57.157Z,14.59
2024-05-09T03:32:27.940Z,14.56
2024-05-09T03:34:58.808Z,14.55
2024-05-09T03:37:29.339Z,14.56
2024-05-09T03:39:59.704Z,14.56
2024-05-09T03:42:30.213Z,14.55
2024-05-09T03:45:00.739Z,14.56
2024-05-09T03:47:35.094Z,14.53
2024-05-09T03:50:14.938Z,14.48
2024-05-09T03:52:48.985Z,14.45
2024-05-09T03:55:19.740Z,14.43
2024-05-09T03:57:50.103Z,14.41
2024-05-09T04:00:30.445Z,14.39
2024-05-09T04:03:09.066Z,14.39
2024-05-09T04:05:43.751Z,14.38
2024-05-09T04:08:15.695Z,14.34
2024-05-09T04:10:46.592Z,14.33
2024-05-09T04:13:17.291Z,14.31
2024-05-09T04:15:47.671Z,14.26
2024-05-09T04:18:19.328Z,14.27
2024-05-09T04:20:49.828Z,14.31
2024-05-09T04:23:20.479Z,14.35
2024-05-09T04:25:50.959Z,14.42
2024-05-09T04:28:21.508Z,14.43
2024-05-09T04:30:52.318Z,14.45
2024-05-09T04:33:23.032Z,14.49
2024-05-09T04:35:53.743Z,14.52
2024-05-09T04:38:24.297Z,14.51
2024-05-09T04:40:54.971Z,14.46
2024-05-09T04:43:25.503Z,14.42
2024-05-09T04:45:55.937Z,14.44
2024-05-09T04:48:26.551Z,14.43
2024-05-09T04:50:57.304Z,14.38
2024-05-09T04:53:27.798Z,14.38
2024-05-09T04:55:58.485Z,14.39
2024-05-09T04:58:28.927Z,14.40
2024-05-09T05:00:59.463Z,14.39
2024-05-09T05:03:30.148Z,14.38
2024-05-09T05:06:00.865Z,14.40
2024-05-09T05:08:31.834Z,14.39
2024-05-09T05:11:02.607Z,14.37
2024-05-09T05:13:33.671Z,14.39
2024-05-09T05:16:04.850Z,14.38
2024-05-09T05:18:35.581Z,14.28
2024-05-09T05:21:06.759Z,14.26
2024-05-09T05:23:37.499Z,14.24
2024-05-09T05:26:08.287Z,14.23
2024-05-09T05:28:38.885Z,14.25
2024-05-09T05:31:09.521Z,14.24
2024-05-09T05:33:40.104Z,14.24
2024-05-09T05:36:10.788Z,14.25
2024-05-09T05:38:41.550Z,14.27
2024-05-09T05:41:12.548Z,14.29
2024-05-09T05:43:43.271Z,14.33
2024-05-09T05:46:13.766Z,14.32
2024-05-09T05:48:44.394Z,14.30
2024-05-09T05:51:15.174Z,14.29
2024-05-09T05:53:46.392Z,14.30
2024-05-09T05:56:17.068Z,14.28
2024-05-09T05:58:47.614Z,14.29
2024-05-09T06:01:18.194Z,14.35
2024-05-09T06:03:49.257Z,14.40
2024-05-09T06:06:20.049Z,14.42
2024-05-09T06:08:50.741Z,14.46
2024-05-09T06:11:21.427Z,14.56
2024-05-09T06:13:52.194Z,14.61
2024-05-09T06:16:22.763Z,14.63
2024-05-09T06:18:53.418Z,14.67
2024-05-09T06:21:24.109Z,14.67
2024-05-09T06:23:54.691Z,14.70
2024-05-09T06:26:25.307Z,14.76
2024-05-09T06:28:56.044Z,14.75
2024-05-09T06:31:26.592Z,14.73
2024-05-09T06:33:57.205Z,14.72
2024-05-09T06:36:28.106Z,14.70
2024-05-09T06:38:58.584Z,14.71
2024-05-09T06:41:29.256Z,14.69
2024-05-09T06:43:59.905Z,14.66
2024-05-09T06:46:30.412Z,14.61
2024-05-09T06:49:06.683Z,14.58
2024-05-09T06:51:38.796Z,14.53
2024-05-09T06:54:09.663Z,14.52
2024-05-09T06:56:40.295Z,14.47
2024-05-09T06:59:11.004Z,14.41
2024-05-09T07:01:41.727Z,14.33
2024-05-09T07:04:12.596Z,14.27
2024-05-09T07:06:43.404Z,14.25
2024-05-09T07:09:13.888Z,14.21
2024-05-09T07:11:44.464Z,14.21
2024-05-09T07:14:15.060Z,14.23
2024-05-09T07:16:45.656Z,14.26
2024-05-09T07:19:16.344Z,14.26
2024-05-09T07:21:46.956Z,14.28
2024-05-09T07:24:17.481Z,14.26
2024-05-09T07:26:47.981Z,14.23
2024-05-09T07:29:18.560Z,14.22
2024-05-09T07:31:49.078Z,14.24
2024-05-09T07:34:19.910Z,14.28
2024-05-09T07:36:50.877Z,14.30
2024-05-09T07:39:22.792Z,14.30
2024-05-09T07:41:53.495Z,14.30
2024-05-09T07:44:24.099Z,14.31
2024-05-09T07:48:13.783Z,14.32
2024-05-09T07:51:32.519Z,14.31
2024-05-09T07:53:33.252Z,14.30
2024-05-09T07:55:26.295Z,14.26
2024-05-09T07:57:57.187Z,14.28
2024-05-09T08:00:31.461Z,14.32
2024-05-09T08:03:02.778Z,14.37
2024-05-09T08:05:33.655Z,14.40
2024-05-09T08:08:04.613Z,14.45
2024-05-09T08:10:36.127Z,14.45
2024-05-09T08:13:06.964Z,14.50
2024-05-09T08:15:37.958Z,14.57
2024-05-09T08:18:10.344Z,14.66
2024-05-09T08:20:41.558Z,14.72
2024-05-09T08:23:12.146Z,14.78
2024-05-09T08:25:42.754Z,14.84
2024-05-09T08:28:13.426Z,14.88
2024-05-09T08:30:44.570Z,14.92
2024-05-09T08:33:15.539Z,14.94
2024-05-09T08:35:46.462Z,14.98
2024-05-09T08:38:17.107Z,15.05
2024-05-09T08:40:47.765Z,15.07
2024-05-09T08:43:18.691Z,15.08
2024-05-09T08:45:50.021Z,15.12
2024-05-09T08:48:21.136Z,15.17
2024-05-09T08:50:53.995Z,15.23
2024-05-09T08:53:24.643Z,15.29
2024-05-09T08:55:55.253Z,15.30
2024-05-09T08:58:25.815Z,15.33
2024-05-09T09:00:56.534Z,15.33
2024-05-09T09:03:28.233Z,15.33
2024-05-09T09:06:01.293Z,15.28
2024-05-09T09:08:31.944Z,15.24
2024-05-09T09:11:02.529Z,15.18
2024-05-09T09:13:33.104Z,15.11
2024-05-09T09:16:03.890Z,15.05
2024-05-09T09:18:34.823Z,15.02
2024-05-09T09:21:05.853Z,14.99
2024-05-09T09:23:36.388Z,15.02
2024-05-09T09:26:07.019Z,15.00
2024-05-09T09:28:40.531Z,14.98
2024-05-09T09:31:11.160Z,15.02
2024-05-09T09:33:44.387Z,15.14
2024-05-09T09:36:15.099Z,15.21
2024-05-09T09:38:45.619Z,15.21
2024-05-09T09:41:22.176Z,15.17
2024-05-09T09:43:52.826Z,15.16
2024-05-09T09:46:23.650Z,15.12
2024-05-09T09:48:54.550Z,15.17
2024-05-09T09:51:25.131Z,15.21
2024-05-09T09:53:55.654Z,15.27
2024-05-09T09:56:26.204Z,15.34
2024-05-09T09:58:56.800Z,15.36
2024-05-09T10:01:27.423Z,15.36
2024-05-09T10:03:58.280Z,15.40
2024-05-09T10:06:30.400Z,15.44
2024-05-09T10:09:00.895Z,15.48
2024-05-09T10:11:34.907Z,15.51
2024-05-09T10:14:09.996Z,15.53
2024-05-09T10:16:45.589Z,15.58
2024-05-09T10:19:25.661Z,15.61
2024-05-09T10:22:02.963Z,15.63
2024-05-09T10:24:47.204Z,15.62
2024-05-09T10:27:17.874Z,15.59
2024-05-09T10:29:54.792Z,15.63
2024-05-09T10:32:25.446Z,15.68
2024-05-09T10:35:02.450Z,15.71
2024-05-09T10:37:33.190Z,15.77
2024-05-09T10:40:07.222Z,15.83
2024-05-09T10:42:42.799Z,15.89
2024-05-09T10:45:13.763Z,15.93
2024-05-09T10:47:44.484Z,15.95
2024-05-09T10:50:22.323Z,15.95
2024-05-09T10:52:58.939Z,15.97
2024-05-09T10:55:29.517Z,15.95
2024-05-09T10:58:00.244Z,15.96
2024-05-09T11:00:36.107Z,16.04
2024-05-09T11:03:07.754Z,16.10
2024-05-09T11:05:38.276Z,16.14
2024-05-09T11:08:09.364Z,16.16
2024-05-09T11:10:40.166Z,16.19
2024-05-09T11:13:11.025Z,16.22
2024-05-09T11:15:41.793Z,16.26
2024-05-09T11:18:24.652Z,16.33
2024-05-09T11:20:56.617Z,16.37
2024-05-09T11:23:30.178Z,16.43
2024-05-09T11:26:00.968Z,16.51
2024-05-09T11:28:31.755Z,16.55
2024-05-09T11:31:09.958Z,16.61
2024-05-09T11:33:42.435Z,16.65
2024-05-09T11:36:13.054Z,16.71
2024-05-09T11:38:43.787Z,16.78
2024-05-09T11:41:19.204Z,16.86
2024-05-09T11:43:49.850Z,16.89
2024-05-09T11:46:20.374Z,16.95
2024-05-09T11:48:51.204Z,17.04
2024-05-09T11:51:22.047Z,17.13
2024-05-09T11:53:52.599Z,17.25
2024-05-09T11:56:23.321Z,17.38
2024-05-09T11:58:53.982Z,17.45
2024-05-09T12:01:27.589Z,17.49
2024-05-09T12:03:58.898Z,17.53
2024-05-09T12:06:30.543Z,17.53
2024-05-09T12:09:01.048Z,17.51
2024-05-09T12:11:31.979Z,17.52
2024-05-09T12:14:06.515Z,17.49
2024-05-09T12:16:37.154Z,17.44
2024-05-09T12:19:07.946Z,17.43
2024-05-09T12:21:38.618Z,17.40
2024-05-09T12:24:09.249Z,17.40
2024-05-09T12:26:39.844Z,17.38
2024-05-09T12:29:10.530Z,17.34
2024-05-09T12:31:41.015Z,17.34
2024-05-09T12:34:11.672Z,17.33
2024-05-09T12:36:42.287Z,17.30
2024-05-09T12:39:12.859Z,17.28
2024-05-09T12:41:43.272Z,17.25
2024-05-09T12:44:13.756Z,17.26
2024-05-09T12:46:44.372Z,17.28
2024-05-09T12:49:17.237Z,17.26
2024-05-09T12:51:49.421Z,17.28
2024-05-09T12:54:20.020Z,17.29
2024-05-09T12:56:50.707Z,17.31
2024-05-09T12:59:21.270Z,17.32
2024-05-09T13:01:51.878Z,17.32
2024-05-09T13:04:22.843Z,17.31
2024-05-09T13:06:53.308Z,17.26
2024-05-09T13:09:24.142Z,17.23
2024-05-09T13:11:54.719Z,17.23
2024-05-09T13:14:25.309Z,17.20
2024-05-09T13:16:55.884Z,17.14
2024-05-09T13:19:26.432Z,17.08
2024-05-09T13:21:56.951Z,17.04
2024-05-09T13:24:27.465Z,17.03
2024-05-09T13:26:58.100Z,17.02
2024-05-09T13:29:28.639Z,16.98
2024-05-09T13:31:59.166Z,16.94
2024-05-09T13:34:29.689Z,16.95
2024-05-09T13:37:00.235Z,16.95
2024-05-09T13:39:30.959Z,16.92
2024-05-09T13:42:01.523Z,16.87
2024-05-09T13:44:32.070Z,16.79
2024-05-09T13:47:02.533Z,16.75
2024-05-09T13:49:33.116Z,16.70
2024-05-09T13:52:03.693Z,16.66
2024-05-09T13:54:34.398Z,16.66
2024-05-09T13:57:05.035Z,16.65
2024-05-09T13:59:35.570Z,16.63
2024-05-09T14:02:06.548Z,16.60
2024-05-09T14:04:37.533Z,16.60
2024-05-09T14:07:10.151Z,16.63
2024-05-09T14:09:41.051Z,16.67
2024-05-09T14:12:11.721Z,16.74
2024-05-09T14:14:42.237Z,16.82
2024-05-09T14:17:12.813Z,16.89
2024-05-09T14:19:43.294Z,16.97
2024-05-09T14:22:13.998Z,17.05
2024-05-09T14:24:44.549Z,17.12
2024-05-09T14:27:15.099Z,17.18
2024-05-09T14:29:45.580Z,17.25
2024-05-09T14:32:16.088Z,17.34
2024-05-09T14:34:47.599Z,17.40
2024-05-09T14:37:18.389Z,17.45
2024-05-09T14:39:48.998Z,17.51
2024-05-09T14:42:20.415Z,17.48
2024-05-09T14:44:50.950Z,17.46
2024-05-09T14:47:21.477Z,17.47
2024-05-09T14:49:52.165Z,17.49
2024-05-09T14:52:22.604Z,17.47
2024-05-09T14:55:00.003Z,17.50
2024-05-09T14:57:31.622Z,17.54
2024-05-09T15:00:02.813Z,17.54
2024-05-09T15:02:35.737Z,17.55
2024-05-09T15:05:07.312Z,17.56
2024-05-09T15:07:38.166Z,17.56
2024-05-09T15:10:16.484Z,17.58
2024-05-09T15:12:51.558Z,17.65
2024-05-09T15:15:22.040Z,17.67
2024-05-09T15:17:52.774Z,17.64
2024-05-09T15:20:31.516Z,17.63
2024-05-09T15:23:07.303Z,17.60
2024-05-09T15:25:38.198Z,17.60
2024-05-09T15:28:09.362Z,17.60
2024-05-09T15:30:42.036Z,17.55
2024-05-09T15:33:14.543Z,17.55
2024-05-09T15:35:46.615Z,17.61
2024-05-09T15:38:17.896Z,17.66
2024-05-09T15:40:49.089Z,17.67
2024-05-09T15:43:19.710Z,17.69
2024-05-09T15:45:50.430Z,17.70
2024-05-09T15:48:21.121Z,17.72
2024-05-09T15:50:51.734Z,17.75
2024-05-09T15:53:22.674Z,17.77
2024-05-09T15:55:53.252Z,17.77
2024-05-09T15:58:23.939Z,17.72
2024-05-09T16:00:54.738Z,17.69
2024-05-09T16:03:25.667Z,17.70
2024-05-09T16:05:58.443Z,17.74
2024-05-09T16:08:29.054Z,17.77
2024-05-09T16:10:59.787Z,17.77
2024-05-09T16:13:30.513Z,17.78
2024-05-09T16:16:01.253Z,17.78
2024-05-09T16:18:31.889Z,17.70
2024-05-09T16:21:02.496Z,17.60
2024-05-09T16:23:33.119Z,17.55
2024-05-09T16:26:03.663Z,17.50
2024-05-09T16:28:34.213Z,17.47
2024-05-09T16:31:04.970Z,17.46
2024-05-09T16:33:35.657Z,17.45
2024-05-09T16:36:07.104Z,17.42
2024-05-09T16:38:39.370Z,17.43
2024-05-09T16:41:09.869Z,17.40
2024-05-09T16:43:40.381Z,17.37
2024-05-09T16:46:11.015Z,17.34
2024-05-09T16:48:45.275Z,17.29
2024-05-09T16:51:15.982Z,17.25
2024-05-09T16:53:48.297Z,17.23
2024-05-09T16:56:18.900Z,17.23
2024-05-09T16:58:51.755Z,17.24
2024-05-09T17:01:22.548Z,17.21
2024-05-09T17:03:53.349Z,17.18
2024-05-09T17:06:24.016Z,17.13
2024-05-09T17:08:55.620Z,17.09
2024-05-09T17:11:29.811Z,17.07
2024-05-09T17:14:00.337Z,17.04
2024-05-09T17:16:31.448Z,17.03
2024-05-09T17:19:02.118Z,16.98
2024-05-09T17:21:32.795Z,16.89
2024-05-09T17:24:03.326Z,16.83
2024-05-09T17:26:33.864Z,16.80
2024-05-09T17:29:04.721Z,16.69
2024-05-09T17:31:35.832Z,16.54
2024-05-09T17:34:06.746Z,16.41
2024-05-09T17:36:37.814Z,16.31
2024-05-09T17:39:08.341Z,16.23
2024-05-09T17:41:39.011Z,16.23
2024-05-09T17:44:09.605Z,16.27
2024-05-09T17:46:40.183Z,16.29
2024-05-09T17:49:10.913Z,16.33
2024-05-09T17:51:51.223Z,16.29
2024-05-09T17:54:21.838Z,16.27
2024-05-09T17:56:54.301Z,16.18
2024-05-09T17:59:24.763Z,16.11
2024-05-09T18:01:55.411Z,16.08
2024-05-09T18:04:26.700Z,16.05
2024-05-09T18:06:58.180Z,16.04
2024-05-09T18:09:28.949Z,16.03
2024-05-09T18:12:00.155Z,16.04
2024-05-09T18:14:30.757Z,16.03
2024-05-09T18:17:01.309Z,16.06
2024-05-09T18:19:32.190Z,16.10
2024-05-09T18:22:02.989Z,16.13
2024-05-09T18:24:33.598Z,16.12
2024-05-09T18:27:05.380Z,16.12
2024-05-09T18:29:37.264Z,16.14
2024-05-09T18:32:08.499Z,16.14
2024-05-09T18:34:39.113Z,16.14
2024-05-09T18:37:09.991Z,16.10
2024-05-09T18:39:40.562Z,16.06
2024-05-09T18:42:11.379Z,16.03
2024-05-09T18:44:42.020Z,15.96
2024-05-09T18:47:12.983Z,15.92
2024-05-09T18:49:44.385Z,15.87
2024-05-09T18:52:15.561Z,15.83
2024-05-09T18:54:46.231Z,15.81
2024-05-09T18:57:17.250Z,15.78
2024-05-09T18:59:47.701Z,15.80
2024-05-09T19:02:18.583Z,15.82
2024-05-09T19:04:49.626Z,15.77
2024-05-09T19:07:20.454Z,15.72
2024-05-09T19:09:51.242Z,15.68
2024-05-09T19:12:21.825Z,15.61
2024-05-09T19:14:52.164Z,15.59
2024-05-09T19:17:22.916Z,15.60
2024-05-09T19:19:53.721Z,15.61
2024-05-09T19:22:24.519Z,15.65
2024-05-09T19:24:55.230Z,15.68
2024-05-09T19:27:25.720Z,15.72
2024-05-09T19:29:57.841Z,15.75
2024-05-09T19:32:28.703Z,15.70
2024-05-09T19:34:59.739Z,15.64
2024-05-09T19:37:31.650Z,15.61
2024-05-09T19:40:02.268Z,15.60
2024-05-09T19:42:33.353Z,15.64
2024-05-09T19:45:04.307Z,15.70
2024-05-09T19:47:34.873Z,15.74
2024-05-09T19:50:10.756Z,15.77
2024-05-09T19:52:48.168Z,15.81
2024-05-09T19:55:18.939Z,15.86
2024-05-09T19:57:49.573Z,15.87
2024-05-09T20:00:26.212Z,15.85
2024-05-09T20:03:03.131Z,15.84
2024-05-09T20:05:34.300Z,15.85
2024-05-09T20:08:05.391Z,15.86
2024-05-09T20:10:36.971Z,15.83
2024-05-09T20:13:09.005Z,15.84
2024-05-09T20:15:40.215Z,15.85
2024-05-09T20:18:11.210Z,15.87
2024-05-09T20:20:44.077Z,15.88
2024-05-09T20:23:16.153Z,15.91
2024-05-09T20:25:46.650Z,15.92
2024-05-09T20:28:17.498Z,15.94
2024-05-09T20:30:48.262Z,15.94
2024-05-09T20:33:18.908Z,15.92
2024-05-09T20:35:49.395Z,15.93
2024-05-09T20:38:20.148Z,15.95
2024-05-09T20:40:50.795Z,15.95
2024-05-09T20:43:21.714Z,15.94
2024-05-09T20:45:52.343Z,15.92
2024-05-09T20:48:23.876Z,15.93
2024-05-09T20:50:54.665Z,15.92
2024-05-09T20:53:25.367Z,15.90
2024-05-09T20:55:55.816Z,15.90
2024-05-09T20:58:26.373Z,15.91
2024-05-09T21:00:57.156Z,15.89
2024-05-09T21:03:27.786Z,15.87
2024-05-09T21:05:58.560Z,15.86
2024-05-09T21:08:29.080Z,15.82
2024-05-09T21:11:00.086Z,15.81
2024-05-09T21:13:30.740Z,15.83
2024-05-09T21:16:01.513Z,15.84
2024-05-09T21:18:32.289Z,15.83
2024-05-09T21:21:03.350Z,15.82
2024-05-09T21:23:34.037Z,15.84
2024-05-09T21:26:04.702Z,15.83
2024-05-09T21:28:35.337Z,15.80
2024-05-09T21:31:06.059Z,15.73
2024-05-09T21:33:37.305Z,15.70
2024-05-09T21:36:09.924Z,15.61
2024-05-09T21:38:42.351Z,15.55
2024-05-09T21:41:12.966Z,15.46
2024-05-09T21:43:43.553Z,15.40
2024-05-09T21:46:14.025Z,15.35
2024-05-09T21:48:44.875Z,15.32
2024-05-09T21:51:15.905Z,15.29
2024-05-09T21:53:46.477Z,15.27
2024-05-09T21:56:17.263Z,15.25
2024-05-09T21:58:47.834Z,15.25
2024-05-09T22:01:18.620Z,15.26
2024-05-09T22:03:49.402Z,15.27
2024-05-09T22:06:20.278Z,15.22
2024-05-09T22:08:50.856Z,15.16
2024-05-09T22:11:21.523Z,15.14
2024-05-09T22:13:52.583Z,15.16
2024-05-09T22:16:23.302Z,15.19
2024-05-09T22:18:54.054Z,15.22
2024-05-09T22:21:24.772Z,15.26
2024-05-09T22:23:55.305Z,15.29
2024-05-09T22:26:25.880Z,15.31
2024-05-09T22:28:56.443Z,15.25
2024-05-09T22:31:27.057Z,15.17
2024-05-09T22:33:57.934Z,15.10
2024-05-09T22:36:28.667Z,15.06
2024-05-09T22:39:00.240Z,14.97
2024-05-09T22:41:30.832Z,14.90
2024-05-09T22:44:02.383Z,14.79
2024-05-09T22:46:32.922Z,14.72
2024-05-09T22:49:04.037Z,14.70
2024-05-09T22:51:35.154Z,14.67
2024-05-09T22:54:06.445Z,14.64
2024-05-09T22:56:37.054Z,14.59
2024-05-09T22:59:07.942Z,14.55
2024-05-09T23:01:38.611Z,14.56
2024-05-09T23:04:09.436Z,14.60
2024-05-09T23:06:42.752Z,14.60
2024-05-09T23:09:13.398Z,14.61
2024-05-09T23:11:45.723Z,14.60
2024-05-09T23:14:16.348Z,14.60
2024-05-09T23:16:46.938Z,14.56
2024-05-09T23:19:17.596Z,14.53
2024-05-09T23:21:48.306Z,14.45
2024-05-09T23:24:18.878Z,14.39
2024-05-09T23:26:49.416Z,14.38
2024-05-09T23:29:20.058Z,14.36
2024-05-09T23:31:50.549Z,14.36
2024-05-09T23:34:21.507Z,14.30
2024-05-09T23:36:52.341Z,14.25
2024-05-09T23:39:22.914Z,14.20
2024-05-09T23:41:53.538Z,14.14
2024-05-09T23:44:24.116Z,14.11
2024-05-09T23:46:54.628Z,14.10
2024-05-09T23:49:25.483Z,14.09
2024-05-09T23:51:56.048Z,14.08
2024-05-09T23:54:26.605Z,14.04
2024-05-09T23:56:57.270Z,14.01
2024-05-09T23:59:27.911Z,13.99
